Queen Victoria — ZCEF3 — position and weather

sailwx.info

Track history (hours):
 
Tides and Currents Weather Stations Pressure Air Temp Water Temp Dewpoint Dewpoint Depression Visibility Wind Speed Wind Dir Waves Ship Positions

Queen Victoria

Last reported at 2018-Nov-15 19:00 UTC. Time now 2018-Nov-18 16:08 UTC.
Position N 49°30' W 003°30'.

Length 294 m; draft 8 m.

Type: Passenger vessel. MMSI: 310624000.

Wind from 160 at 8 knots

Barometer 1019.2 mb
Air temperature 13.0 ° C
Visibility: greater than 10.8 NM
Dewpoint 12.1 ° C
Water temperature 15.0 ° C

Date/timePositionNaut miles runAvg speedWind from/ knotsBaromVisibWave heightAir tempDewpointWater temp
2018-Nov-15 19:00N 49°30' W 003°30'5914.8 160 / 81019.210.8 13.012.115.0
2018-Nov-15 15:00N 48°54' W 004°42'9613.7 200 / 31017.7 5.4 12.811.721.0
2018-Nov-15 08:00N 47°36' W 006°06'18814.5 140 / 261016.1 5.4 13.012.114.0
2018-Nov-14 19:00N 44°54' W 008°24'12715.9 150 / 201016.410.8 14.511.715.0
2018-Nov-14 11:00N 43°00' W 009°42'5418.0 180 / 111018.810.8 15.013.215.0
2018-Nov-14 08:00N 42°06' W 009°42'   150 / 201019.510.8 15.013.216.0
2018-Nov-10 00:46N 36°02' W 005°08'312.6
2018-Nov-10 00:33N 36°02' W 005°11'612.6
2018-Nov-10 00:03N 36°00' W 005°18'612.4
2018-Nov-09 23:33N 35°58' W 005°26'1112.6
2018-Nov-09 22:42N 35°55' W 005°38'712.5
2018-Nov-09 22:06N 35°55' W 005°47'112.3
2018-Nov-09 22:00N 35°56' W 005°49'4210.7
2018-Nov-09 18:03N 36°26' W 006°26'240.3
2018-Nov-09 18:00N 36°24' W 006°24'429.9 270 / 101026.710.8 16.5 8.719.0
2018-Nov-09 17:51N 36°28' W 006°26'412.1
2018-Nov-09 17:33N 36°31' W 006°24'611.6
2018-Nov-09 17:02N 36°33' W 006°17'1 2.1
2018-Nov-09 16:28N 36°32' W 006°17'0 0.0
2018-Nov-09 16:01N 36°32' W 006°17'0 0.0
2018-Nov-09 15:22N 36°32' W 006°17'0 0.0
2018-Nov-09 15:01N 36°32' W 006°17'0 0.0
2018-Nov-09 14:22N 36°32' W 006°17'0 0.0
2018-Nov-09 13:58N 36°32' W 006°17'0 0.0
2018-Nov-09 13:28N 36°32' W 006°17'0 0.0
2018-Nov-09 12:57N 36°32' W 006°17'0 0.0
2018-Nov-09 12:30N 36°32' W 006°17'0 0.0
2018-Nov-09 12:01N 36°32' W 006°17'0 0.0
2018-Nov-09 11:31N 36°32' W 006°17'0 0.0
2018-Nov-09 11:01N 36°32' W 006°17'0 0.0
2018-Nov-09 10:30N 36°32' W 006°17'0 0.0
2018-Nov-09 09:54N 36°32' W 006°17'0 0.0
2018-Nov-09 09:30N 36°32' W 006°17'0 0.0
2018-Nov-09 08:46N 36°32' W 006°17'0 0.0
2018-Nov-09 08:17N 36°32' W 006°17'0 0.0
2018-Nov-09 07:59N 36°32' W 006°17'0 0.0
2018-Nov-09 07:29N 36°32' W 006°17'0 0.0
2018-Nov-09 06:59N 36°32' W 006°17'0 0.0
2018-Nov-09 06:32N 36°32' W 006°17'0 1.0
2018-Nov-09 06:02N 36°32' W 006°17'2 4.4
2018-Nov-09 05:32N 36°34' W 006°19'510.2
2018-Nov-09 05:02N 36°34' W 006°25'19413.7
2018-Nov-08 14:53N 38°11' W 009°57'719.1
2018-Nov-08 14:32N 38°17' W 009°59'1019.4
2018-Nov-08 14:02N 38°27' W 010°02'1019.2
2018-Nov-08 13:32N 38°36' W 010°05'919.2
2018-Nov-08 13:02N 38°46' W 010°07'918.5
2018-Nov-08 12:32N 38°55' W 010°07'918.0
2018-Nov-08 12:02N 39°04' W 010°07'918.2
2018-Nov-08 11:32N 39°13' W 010°07'918.6
2018-Nov-08 11:02N 39°22' W 010°07'1018.5
2018-Nov-08 10:30N 39°32' W 010°07'5816.5
2018-Nov-08 07:00N 40°30' W 010°06'50811.5 230 / 421010.610.8 14.012.217.0
2018-Nov-06 10:43N 48°19' W 005°33'617.2
2018-Nov-06 10:20N 48°25' W 005°29'517.7
2018-Nov-06 10:04N 48°30' W 005°26'117.9
2018-Nov-06 10:01N 48°30' W 005°25'917.8
2018-Nov-06 09:31N 48°37' W 005°17'918.9
2018-Nov-06 09:04N 48°43' W 005°08'119.0
2018-Nov-06 09:01N 48°44' W 005°07'815.7
2018-Nov-06 08:31N 48°49' W 004°58'715.2
2018-Nov-06 08:04N 48°54' W 004°50'115.4
2018-Nov-06 08:01N 48°54' W 004°49'815.1
2018-Nov-06 07:31N 48°59' W 004°41'6613.4
2018-Nov-06 02:36N 49°43' W 003°25'313.7
2018-Nov-06 02:21N 49°45' W 003°21'414.3
2018-Nov-06 02:02N 49°48' W 003°16'114.8
2018-Nov-06 01:59N 49°49' W 003°15'815.2
2018-Nov-06 01:28N 49°55' W 003°07'1313.5
2018-Nov-06 00:29N 50°02' W 002°50'2016.6
2018-Nov-05 23:18N 50°07' W 002°21'617.1
2018-Nov-05 22:58N 50°10' W 002°13'816.7
2018-Nov-05 22:30N 50°14' W 002°02'716.1
2018-Nov-05 22:03N 50°17' W 001°53'115.5
2018-Nov-05 22:00N 50°18' W 001°52'815.3
2018-Nov-05 21:30N 50°22' W 001°41'714.6
2018-Nov-05 21:03N 50°23' W 001°31'114.3
2018-Nov-05 21:00N 50°24' W 001°30'714.0
2018-Nov-05 20:31N 50°27' W 001°20'613.7
2018-Nov-05 20:03N 50°29' W 001°11'113.5
2018-Nov-05 20:00N 50°30' W 001°11'613.0
2018-Nov-05 19:31N 50°33' W 001°01'613.1
2018-Nov-05 19:03N 50°38' W 000°59'113.8
2018-Nov-05 19:00N 50°39' W 000°58'  
Track history (hours):
 
Tides and Currents Weather Stations Pressure Air Temp Water Temp Dewpoint Dewpoint Depression Visibility Wind Speed Wind Dir Waves Ship Positions

Queen Victoria

Last reported at 2018-Nov-15 19:00 UTC. Time now 2018-Nov-18 16:08 UTC.
Position N 49°30' W 003°30'.

Length 294 m; draft 8 m.

Type: Passenger vessel. MMSI: 310624000.

Wind from 160 at 8 knots

Barometer 1019.2 mb
Air temperature 13.0 ° C
Visibility: greater than 10.8 NM
Dewpoint 12.1 ° C
Water temperature 15.0 ° C

Date/timePositionNaut miles runAvg speedWind from/ knotsBaromVisibWave heightAir tempDewpointWater temp
2018-Nov-15 19:00N 49°30' W 003°30'5914.8 160 / 81019.210.8 13.012.115.0
2018-Nov-15 15:00N 48°54' W 004°42'9613.7 200 / 31017.7 5.4 12.811.721.0
2018-Nov-15 08:00N 47°36' W 006°06'18814.5 140 / 261016.1 5.4 13.012.114.0
2018-Nov-14 19:00N 44°54' W 008°24'12715.9 150 / 201016.410.8 14.511.715.0
2018-Nov-14 11:00N 43°00' W 009°42'5418.0 180 / 111018.810.8 15.013.215.0
2018-Nov-14 08:00N 42°06' W 009°42'   150 / 201019.510.8 15.013.216.0
2018-Nov-10 00:46N 36°02' W 005°08'312.6
2018-Nov-10 00:33N 36°02' W 005°11'612.6
2018-Nov-10 00:03N 36°00' W 005°18'612.4
2018-Nov-09 23:33N 35°58' W 005°26'1112.6
2018-Nov-09 22:42N 35°55' W 005°38'712.5
2018-Nov-09 22:06N 35°55' W 005°47'112.3
2018-Nov-09 22:00N 35°56' W 005°49'4210.7
2018-Nov-09 18:03N 36°26' W 006°26'240.3
2018-Nov-09 18:00N 36°24' W 006°24'429.9 270 / 101026.710.8 16.5 8.719.0
2018-Nov-09 17:51N 36°28' W 006°26'412.1
2018-Nov-09 17:33N 36°31' W 006°24'611.6
2018-Nov-09 17:02N 36°33' W 006°17'1 2.1
2018-Nov-09 16:28N 36°32' W 006°17'0 0.0
2018-Nov-09 16:01N 36°32' W 006°17'0 0.0
2018-Nov-09 15:22N 36°32' W 006°17'0 0.0
2018-Nov-09 15:01N 36°32' W 006°17'0 0.0
2018-Nov-09 14:22N 36°32' W 006°17'0 0.0
2018-Nov-09 13:58N 36°32' W 006°17'0 0.0
2018-Nov-09 13:28N 36°32' W 006°17'0 0.0
2018-Nov-09 12:57N 36°32' W 006°17'0 0.0
2018-Nov-09 12:30N 36°32' W 006°17'0 0.0
2018-Nov-09 12:01N 36°32' W 006°17'0 0.0
2018-Nov-09 11:31N 36°32' W 006°17'0 0.0
2018-Nov-09 11:01N 36°32' W 006°17'0 0.0
2018-Nov-09 10:30N 36°32' W 006°17'0 0.0
2018-Nov-09 09:54N 36°32' W 006°17'0 0.0
2018-Nov-09 09:30N 36°32' W 006°17'0 0.0
2018-Nov-09 08:46N 36°32' W 006°17'0 0.0
2018-Nov-09 08:17N 36°32' W 006°17'0 0.0
2018-Nov-09 07:59N 36°32' W 006°17'0 0.0
2018-Nov-09 07:29N 36°32' W 006°17'0 0.0
2018-Nov-09 06:59N 36°32' W 006°17'0 0.0
2018-Nov-09 06:32N 36°32' W 006°17'0 1.0
2018-Nov-09 06:02N 36°32' W 006°17'2 4.4
2018-Nov-09 05:32N 36°34' W 006°19'510.2
2018-Nov-09 05:02N 36°34' W 006°25'19413.7
2018-Nov-08 14:53N 38°11' W 009°57'719.1
2018-Nov-08 14:32N 38°17' W 009°59'1019.4
2018-Nov-08 14:02N 38°27' W 010°02'1019.2
2018-Nov-08 13:32N 38°36' W 010°05'919.2
2018-Nov-08 13:02N 38°46' W 010°07'918.5
2018-Nov-08 12:32N 38°55' W 010°07'918.0
2018-Nov-08 12:02N 39°04' W 010°07'918.2
2018-Nov-08 11:32N 39°13' W 010°07'918.6
2018-Nov-08 11:02N 39°22' W 010°07'1018.5
2018-Nov-08 10:30N 39°32' W 010°07'5816.5
2018-Nov-08 07:00N 40°30' W 010°06'50811.5 230 / 421010.610.8 14.012.217.0
2018-Nov-06 10:43N 48°19' W 005°33'617.2
2018-Nov-06 10:20N 48°25' W 005°29'517.7
2018-Nov-06 10:04N 48°30' W 005°26'117.9
2018-Nov-06 10:01N 48°30' W 005°25'917.8
2018-Nov-06 09:31N 48°37' W 005°17'918.9
2018-Nov-06 09:04N 48°43' W 005°08'119.0
2018-Nov-06 09:01N 48°44' W 005°07'815.7
2018-Nov-06 08:31N 48°49' W 004°58'715.2
2018-Nov-06 08:04N 48°54' W 004°50'115.4
2018-Nov-06 08:01N 48°54' W 004°49'815.1
2018-Nov-06 07:31N 48°59' W 004°41'6613.4
2018-Nov-06 02:36N 49°43' W 003°25'313.7
2018-Nov-06 02:21N 49°45' W 003°21'414.3
2018-Nov-06 02:02N 49°48' W 003°16'114.8
2018-Nov-06 01:59N 49°49' W 003°15'815.2
2018-Nov-06 01:28N 49°55' W 003°07'1313.5
2018-Nov-06 00:29N 50°02' W 002°50'2016.6
2018-Nov-05 23:18N 50°07' W 002°21'617.1
2018-Nov-05 22:58N 50°10' W 002°13'816.7
2018-Nov-05 22:30N 50°14' W 002°02'716.1
2018-Nov-05 22:03N 50°17' W 001°53'115.5
2018-Nov-05 22:00N 50°18' W 001°52'815.3
2018-Nov-05 21:30N 50°22' W 001°41'714.6
2018-Nov-05 21:03N 50°23' W 001°31'114.3
2018-Nov-05 21:00N 50°24' W 001°30'714.0
2018-Nov-05 20:31N 50°27' W 001°20'613.7
2018-Nov-05 20:03N 50°29' W 001°11'113.5
2018-Nov-05 20:00N 50°30' W 001°11'613.0
2018-Nov-05 19:31N 50°33' W 001°01'613.1
2018-Nov-05 19:03N 50°38' W 000°59'113.8
2018-Nov-05 19:00N 50°39' W 000°58'  

Dump ship's entire track history